Time;durP1;ratioP1;P1;durP2;ratioP2;P2;SDS_P1;SDS_P2;PMS_P1;PMS_P2;Temp;Humidity;BMP_temperature;BMP_pressure;BME280_temperature;BME280_humidity;BME280_pressure;Samples;Min_cycle;Max_cycle;Signal;HPM_P1;HPM_P2
2023/03/12 00:01:18;;;;;;;16.23;7.00;;;;;;;;;;4979613;28;93433;-69
2023/03/12 00:03:45;;;;;;;16.58;6.90;;;;;;;;;;4996408;28;92430;-70
2023/03/12 00:06:12;;;;;;;11.25;6.47;;;;;;;;;;4993568;28;93639;-70
2023/03/12 00:08:39;;;;;;;21.80;7.07;;;;;;;;;;4982247;28;93439;-69
2023/03/12 00:11:06;;;;;;;16.52;7.45;;;;;;;;;;4996913;28;91947;-70
2023/03/12 00:13:32;;;;;;;19.17;7.93;;;;;;;;;;4992114;28;93424;-70
2023/03/12 00:16:03;;;;;;;21.10;8.85;;;;;;;;;;4983049;28;92592;-70
2023/03/12 00:18:29;;;;;;;13.82;6.78;;;;;;;;;;4984154;28;94771;-70
2023/03/12 00:20:55;;;;;;;14.80;6.03;;;;;;;;;;4990077;28;93393;-70
2023/03/12 00:23:21;;;;;;;11.75;6.47;;;;;;;;;;4981828;28;92493;-70
2023/03/12 00:25:48;;;;;;;12.82;7.20;;;;;;;;;;4994514;28;93829;-70
2023/03/12 00:28:14;;;;;;;12.48;6.32;;;;;;;;;;4992508;28;94448;-70
2023/03/12 00:30:42;;;;;;;12.65;6.53;;;;;;;;;;4991498;28;92482;-70
2023/03/12 00:33:09;;;;;;;12.05;6.18;;;;;;;;;;4985831;28;93145;-70
2023/03/12 00:35:38;;;;;;;11.38;6.35;;;;;;;;;;4992625;28;92018;-70
2023/03/12 00:38:05;;;;;;;15.90;6.68;;;;;;;;;;4986763;28;93580;-69
2023/03/12 00:40:31;;;;;;;15.02;6.75;;;;;;;;;;4998748;28;93599;-69
2023/03/12 00:42:57;;;;;;;16.88;6.95;;;;;;;;;;4991513;28;94855;-70
2023/03/12 00:45:24;;;;;;;13.13;6.85;;;;;;;;;;4981875;28;95669;-69
2023/03/12 00:47:50;;;;;;;16.27;6.82;;;;;;;;;;4982298;28;93417;-69
2023/03/12 00:50:16;;;;;;;15.38;6.75;;;;;;;;;;4985547;28;92409;-70
2023/03/12 00:52:42;;;;;;;16.20;6.45;;;;;;;;;;4993920;28;93227;-69
2023/03/12 00:55:09;;;;;;;11.50;5.93;;;;;;;;;;4992568;28;93397;-70
2023/03/12 00:57:35;;;;;;;15.25;6.32;;;;;;;;;;4992913;28;93430;-69
2023/03/12 01:00:03;;;;;;;9.65;4.53;;;;;;;;;;4992035;28;93126;-70
2023/03/12 01:02:30;;;;;;;16.02;5.03;;;;;;;;;;4982800;28;94197;-69
2023/03/12 01:04:56;;;;;;;12.80;5.05;;;;;;;;;;4975123;28;94273;-70
2023/03/12 01:07:22;;;;;;;10.27;4.68;;;;;;;;;;4985344;28;95883;-70
2023/03/12 01:09:49;;;;;;;13.63;4.32;;;;;;;;;;4989644;28;93275;-70
2023/03/12 01:12:15;;;;;;;12.10;4.18;;;;;;;;;;4993382;28;94129;-70
2023/03/12 01:14:41;;;;;;;9.20;4.18;;;;;;;;;;4992511;28;93220;-70
2023/03/12 01:17:08;;;;;;;7.68;3.78;;;;;;;;;;4993415;28;92575;-70
2023/03/12 01:19:34;;;;;;;13.32;5.03;;;;;;;;;;4988911;28;93407;-70
2023/03/12 01:22:00;;;;;;;9.50;4.75;;;;;;;;;;4979491;28;94438;-70
2023/03/12 01:24:27;;;;;;;7.72;4.35;;;;;;;;;;4990074;28;93594;-71
2023/03/12 01:26:53;;;;;;;13.10;4.15;;;;;;;;;;4973940;28;93196;-69
2023/03/12 01:29:19;;;;;;;7.65;4.07;;;;;;;;;;4977564;28;92721;-69
2023/03/12 01:31:46;;;;;;;10.65;4.35;;;;;;;;;;4983525;28;94940;-69
2023/03/12 01:34:12;;;;;;;9.90;3.90;;;;;;;;;;4977777;28;93656;-69
2023/03/12 01:36:39;;;;;;;10.63;4.85;;;;;;;;;;4976945;28;92458;-70
2023/03/12 01:39:05;;;;;;;6.97;3.72;;;;;;;;;;4978722;28;92956;-69
2023/03/12 01:41:32;;;;;;;10.00;4.43;;;;;;;;;;4977762;28;92845;-70
2023/03/12 01:44:00;;;;;;;9.68;4.00;;;;;;;;;;4991060;28;92961;-70
2023/03/12 01:46:29;;;;;;;10.98;4.20;;;;;;;;;;4986210;28;94417;-69
2023/03/12 01:49:01;;;;;;;10.57;4.47;;;;;;;;;;4990187;28;91666;-70
2023/03/12 01:51:33;;;;;;;11.52;4.85;;;;;;;;;;4975505;28;92609;-70
2023/03/12 01:54:01;;;;;;;9.10;4.78;;;;;;;;;;4990654;28;93305;-70
2023/03/12 01:56:31;;;;;;;10.38;5.35;;;;;;;;;;4984656;28;94833;-70
2023/03/12 01:58:59;;;;;;;11.05;4.40;;;;;;;;;;4993163;28;98321;-70
2023/03/12 02:01:26;;;;;;;12.75;4.75;;;;;;;;;;5002869;28;92676;-70
2023/03/12 02:03:53;;;;;;;8.48;4.18;;;;;;;;;;4977273;28;93078;-70
2023/03/12 02:06:25;;;;;;;8.85;4.35;;;;;;;;;;4985303;28;93565;-70
2023/03/12 02:08:52;;;;;;;13.70;4.18;;;;;;;;;;4989749;28;94012;-70
2023/03/12 02:11:18;;;;;;;13.07;4.18;;;;;;;;;;4991405;28;93405;-70
2023/03/12 02:13:44;;;;;;;12.73;4.28;;;;;;;;;;4993897;28;93602;-70
2023/03/12 02:16:11;;;;;;;7.57;4.63;;;;;;;;;;4997212;28;92490;-70
2023/03/12 02:18:37;;;;;;;11.15;5.05;;;;;;;;;;4977902;28;93691;-71
2023/03/12 02:21:14;;;;;;;16.80;4.68;;;;;;;;;;4980240;28;96086;-70
2023/03/12 02:23:50;;;;;;;7.05;4.18;;;;;;;;;;4987204;28;95672;-70
2023/03/12 02:26:17;;;;;;;18.35;4.75;;;;;;;;;;4991197;28;93929;-70
2023/03/12 02:28:45;;;;;;;9.20;3.83;;;;;;;;;;4993108;28;94624;-69
2023/03/12 02:31:13;;;;;;;7.95;4.60;;;;;;;;;;4984592;28;93602;-70
2023/03/12 02:33:39;;;;;;;7.38;4.03;;;;;;;;;;4989086;28;93786;-70
2023/03/12 02:36:05;;;;;;;8.05;4.00;;;;;;;;;;4993663;28;92497;-70
2023/03/12 02:38:35;;;;;;;10.48;4.55;;;;;;;;;;4992489;28;93259;-70
2023/03/12 02:41:07;;;;;;;12.52;4.90;;;;;;;;;;4985122;28;93904;-70
2023/03/12 02:43:33;;;;;;;11.13;4.05;;;;;;;;;;5003144;28;92469;-70
2023/03/12 02:45:59;;;;;;;6.40;3.50;;;;;;;;;;4993393;28;96100;-70
2023/03/12 02:48:26;;;;;;;13.38;4.22;;;;;;;;;;4995907;28;93220;-69
2023/03/12 02:50:52;;;;;;;7.80;3.95;;;;;;;;;;4996435;28;93360;-69
2023/03/12 02:53:19;;;;;;;6.97;3.28;;;;;;;;;;4993876;28;93434;-70
2023/03/12 02:55:45;;;;;;;7.40;3.35;;;;;;;;;;4976551;28;92433;-69
2023/03/12 02:58:11;;;;;;;12.88;3.90;;;;;;;;;;4983213;28;94164;-71
2023/03/12 03:00:38;;;;;;;14.40;4.22;;;;;;;;;;4988239;28;93499;-70
2023/03/12 03:03:04;;;;;;;7.75;3.33;;;;;;;;;;4986967;28;92545;-70
2023/03/12 03:05:30;;;;;;;9.73;3.10;;;;;;;;;;4998528;28;94826;-70
2023/03/12 03:07:57;;;;;;;9.60;4.38;;;;;;;;;;4992116;28;93109;-70
2023/03/12 03:10:23;;;;;;;8.88;3.50;;;;;;;;;;4982122;28;95138;-70
2023/03/12 03:12:50;;;;;;;9.27;3.20;;;;;;;;;;4990858;28;94424;-70
2023/03/12 03:15:16;;;;;;;6.32;3.10;;;;;;;;;;4981713;28;92684;-69
2023/03/12 03:17:43;;;;;;;8.98;4.25;;;;;;;;;;4987834;28;93444;-69
2023/03/12 03:20:10;;;;;;;5.45;3.33;;;;;;;;;;4990290;28;93537;-70
2023/03/12 03:22:37;;;;;;;7.38;3.08;;;;;;;;;;4983120;28;92571;-69
2023/03/12 03:25:05;;;;;;;6.47;3.05;;;;;;;;;;4985471;28;93222;-69
2023/03/12 03:27:31;;;;;;;10.57;3.15;;;;;;;;;;4979587;28;92698;-70
2023/03/12 03:29:58;;;;;;;8.40;2.95;;;;;;;;;;4988313;28;93568;-70
2023/03/12 03:32:24;;;;;;;10.02;3.15;;;;;;;;;;4986369;28;94732;-70
2023/03/12 03:34:50;;;;;;;12.27;3.33;;;;;;;;;;4982586;28;95216;-70
2023/03/12 03:37:17;;;;;;;14.13;3.20;;;;;;;;;;4995151;28;95636;-70
2023/03/12 03:39:43;;;;;;;6.90;2.65;;;;;;;;;;4979971;28;93453;-70
2023/03/12 03:42:09;;;;;;;7.85;3.33;;;;;;;;;;4989930;28;94231;-69
2023/03/12 03:44:35;;;;;;;13.40;4.00;;;;;;;;;;4988982;28;94257;-69
2023/03/12 03:47:02;;;;;;;7.70;2.97;;;;;;;;;;4988488;28;94616;-70
2023/03/12 03:49:28;;;;;;;9.57;2.85;;;;;;;;;;4988247;28;92434;-69
2023/03/12 03:51:55;;;;;;;9.93;3.10;;;;;;;;;;4987318;28;93824;-69
2023/03/12 03:54:21;;;;;;;10.13;3.13;;;;;;;;;;4978941;28;92764;-69
2023/03/12 03:56:48;;;;;;;7.90;2.78;;;;;;;;;;4989215;28;93450;-69
2023/03/12 03:59:14;;;;;;;5.65;2.85;;;;;;;;;;4986006;28;96878;-70
2023/03/12 04:01:40;;;;;;;8.88;2.90;;;;;;;;;;4991883;28;92465;-72
2023/03/12 04:04:06;;;;;;;11.98;3.00;;;;;;;;;;4991091;28;93457;-70
2023/03/12 04:06:33;;;;;;;6.88;2.38;;;;;;;;;;4981286;28;94573;-71
2023/03/12 04:08:59;;;;;;;5.18;2.42;;;;;;;;;;4982027;28;92418;-70
2023/03/12 04:11:26;;;;;;;11.00;3.05;;;;;;;;;;4988075;28;93455;-72
2023/03/12 04:13:52;;;;;;;10.20;3.30;;;;;;;;;;4993731;28;92537;-70
2023/03/12 04:16:19;;;;;;;5.10;2.40;;;;;;;;;;4987371;28;93436;-70
2023/03/12 04:18:45;;;;;;;12.00;3.05;;;;;;;;;;4980106;28;93422;-70
2023/03/12 04:21:12;;;;;;;10.68;2.88;;;;;;;;;;4994740;28;92879;-70
2023/03/12 04:23:38;;;;;;;8.90;4.57;;;;;;;;;;4980282;28;94827;-71
2023/03/12 04:26:05;;;;;;;11.40;3.15;;;;;;;;;;4977387;28;93742;-70
2023/03/12 04:28:31;;;;;;;7.18;2.80;;;;;;;;;;4983715;28;92565;-70
2023/03/12 04:30:59;;;;;;;9.63;3.35;;;;;;;;;;4992511;28;92549;-70
2023/03/12 04:33:29;;;;;;;9.57;3.60;;;;;;;;;;4976733;28;93980;-70
2023/03/12 04:35:56;;;;;;;8.68;3.75;;;;;;;;;;4994640;28;93103;-71
2023/03/12 04:38:23;;;;;;;16.33;4.50;;;;;;;;;;4989632;28;93996;-70
2023/03/12 04:41:02;;;;;;;11.85;4.00;;;;;;;;;;4978297;28;91818;-71
2023/03/12 04:43:28;;;;;;;8.25;3.35;;;;;;;;;;4986047;28;92583;-71
2023/03/12 04:45:54;;;;;;;9.77;4.05;;;;;;;;;;4993753;28;92478;-70
2023/03/12 04:48:21;;;;;;;8.52;4.07;;;;;;;;;;4978589;28;94958;-70
2023/03/12 04:50:48;;;;;;;9.10;4.03;;;;;;;;;;4993464;28;95466;-70
2023/03/12 04:53:14;;;;;;;14.48;3.92;;;;;;;;;;4993425;28;93579;-71
2023/03/12 04:55:41;;;;;;;11.07;4.22;;;;;;;;;;4981668;28;93235;-71
2023/03/12 04:58:07;;;;;;;7.28;3.90;;;;;;;;;;4978679;28;94529;-71
2023/03/12 05:00:34;;;;;;;13.32;4.05;;;;;;;;;;4994469;28;92453;-70
2023/03/12 05:03:01;;;;;;;6.78;4.15;;;;;;;;;;4991879;28;93208;-71
2023/03/12 05:05:27;;;;;;;11.98;3.80;;;;;;;;;;4991812;28;92920;-71
2023/03/12 05:07:53;;;;;;;8.73;3.78;;;;;;;;;;4991106;28;92788;-70
2023/03/12 05:10:20;;;;;;;11.55;5.30;;;;;;;;;;4993497;28;93195;-70
2023/03/12 05:12:46;;;;;;;12.32;3.90;;;;;;;;;;4990248;28;95815;-70
2023/03/12 05:15:12;;;;;;;9.43;4.50;;;;;;;;;;4996236;28;92764;-70
2023/03/12 05:17:38;;;;;;;7.22;3.50;;;;;;;;;;4991140;28;93629;-70
2023/03/12 05:20:05;;;;;;;6.18;3.88;;;;;;;;;;4988614;28;92552;-70
2023/03/12 05:22:31;;;;;;;10.13;3.95;;;;;;;;;;4990903;28;94228;-71
2023/03/12 05:24:58;;;;;;;9.32;3.80;;;;;;;;;;4983285;28;94203;-71
2023/03/12 05:27:24;;;;;;;12.18;4.18;;;;;;;;;;4985787;28;92468;-71
2023/03/12 05:29:51;;;;;;;10.23;4.30;;;;;;;;;;4993058;28;93229;-71
2023/03/12 05:32:18;;;;;;;16.13;5.28;;;;;;;;;;4992294;28;95090;-71
2023/03/12 05:34:44;;;;;;;15.68;4.30;;;;;;;;;;4990992;28;92575;-71
2023/03/12 05:37:10;;;;;;;14.45;4.00;;;;;;;;;;4990073;28;95265;-71
2023/03/12 05:39:37;;;;;;;8.20;4.40;;;;;;;;;;4992362;28;92478;-71
2023/03/12 05:42:03;;;;;;;9.02;4.22;;;;;;;;;;4989342;28;94241;-71
2023/03/12 05:44:29;;;;;;;9.57;3.70;;;;;;;;;;4991431;28;93336;-71
2023/03/12 05:46:56;;;;;;;14.32;3.90;;;;;;;;;;4983175;28;94260;-71
2023/03/12 05:49:24;;;;;;;11.90;4.22;;;;;;;;;;4991630;28;93137;-71
2023/03/12 05:51:50;;;;;;;7.00;3.45;;;;;;;;;;4995947;28;93461;-71
2023/03/12 05:54:17;;;;;;;11.07;4.15;;;;;;;;;;4990745;28;91784;-70
2023/03/12 05:56:43;;;;;;;14.68;4.60;;;;;;;;;;4983443;28;92474;-70
2023/03/12 05:59:09;;;;;;;10.98;3.92;;;;;;;;;;4998930;28;93459;-70
2023/03/12 06:01:35;;;;;;;9.02;3.92;;;;;;;;;;4992493;28;95478;-70
2023/03/12 06:04:02;;;;;;;11.82;5.43;;;;;;;;;;5000681;28;93818;-70
2023/03/12 06:06:29;;;;;;;12.55;4.03;;;;;;;;;;4989627;28;92465;-70
2023/03/12 06:08:55;;;;;;;11.48;3.92;;;;;;;;;;4986681;28;94236;-70
2023/03/12 06:11:22;;;;;;;14.32;3.85;;;;;;;;;;4984637;28;94118;-70
2023/03/12 06:13:48;;;;;;;6.80;3.95;;;;;;;;;;4995064;28;92816;-70
2023/03/12 06:16:18;;;;;;;9.85;3.65;;;;;;;;;;4991850;28;93065;-70
2023/03/12 06:18:45;;;;;;;;;;;;;;;;;;4984539;28;92708;-68
2023/03/12 06:21:15;;;;;;;9.70;3.65;;;;;;;;;;4985837;28;122823;-70
2023/03/12 06:23:42;;;;;;;11.15;4.57;;;;;;;;;;4995204;28;93513;-70
2023/03/12 06:26:09;;;;;;;14.63;4.65;;;;;;;;;;4992384;28;95065;-70
2023/03/12 06:28:36;;;;;;;11.95;4.65;;;;;;;;;;4991513;28;95593;-70
2023/03/12 06:31:03;;;;;;;14.40;4.93;;;;;;;;;;4992623;28;94801;-70
2023/03/12 06:33:30;;;;;;;13.95;6.13;;;;;;;;;;4987685;28;92850;-70
2023/03/12 06:35:57;;;;;;;10.23;4.55;;;;;;;;;;4980556;28;94417;-70
2023/03/12 06:38:24;;;;;;;10.88;4.40;;;;;;;;;;4986206;28;94538;-70
2023/03/12 06:40:58;;;;;;;9.68;4.93;;;;;;;;;;4985994;28;93086;-69
2023/03/12 06:43:25;;;;;;;13.40;5.43;;;;;;;;;;4998105;28;93105;-69
2023/03/12 06:45:53;;;;;;;11.45;5.03;;;;;;;;;;4996207;28;92409;-69
2023/03/12 06:48:19;;;;;;;17.08;5.13;;;;;;;;;;4978931;28;93068;-70
2023/03/12 06:50:45;;;;;;;14.07;5.03;;;;;;;;;;4992641;28;96782;-69
2023/03/12 06:53:11;;;;;;;11.60;4.97;;;;;;;;;;4992318;28;92460;-70
2023/03/12 06:55:38;;;;;;;10.88;5.28;;;;;;;;;;4978556;28;94374;-69
2023/03/12 06:58:04;;;;;;;15.93;5.82;;;;;;;;;;4992797;28;93546;-70
2023/03/12 07:00:31;;;;;;;12.18;4.90;;;;;;;;;;4996182;28;92451;-70
2023/03/12 07:02:58;;;;;;;17.80;6.63;;;;;;;;;;4997305;28;93111;-70
2023/03/12 07:05:24;;;;;;;12.75;5.30;;;;;;;;;;4994838;28;92440;-69
2023/03/12 07:07:54;;;;;;;16.33;6.13;;;;;;;;;;4988679;28;93156;-69
2023/03/12 07:10:20;;;;;;;15.57;5.70;;;;;;;;;;4993042;28;93564;-70
2023/03/12 07:12:46;;;;;;;10.93;5.50;;;;;;;;;;4983204;28;92458;-70
2023/03/12 07:15:13;;;;;;;10.15;5.90;;;;;;;;;;4994465;28;95117;-69
2023/03/12 07:17:39;;;;;;;16.42;5.78;;;;;;;;;;4986895;28;94039;-69
2023/03/12 07:20:06;;;;;;;18.80;6.82;;;;;;;;;;4981249;28;93392;-69
2023/03/12 07:22:32;;;;;;;12.73;6.57;;;;;;;;;;4982752;28;92941;-69
2023/03/12 07:24:58;;;;;;;10.07;6.63;;;;;;;;;;4993602;28;93719;-70
2023/03/12 07:27:25;;;;;;;12.25;6.35;;;;;;;;;;4988773;28;92504;-69
2023/03/12 07:29:51;;;;;;;15.35;7.05;;;;;;;;;;4990557;28;93464;-69
2023/03/12 07:32:17;;;;;;;23.77;7.43;;;;;;;;;;4994910;28;91948;-69
2023/03/12 07:34:44;;;;;;;21.83;7.88;;;;;;;;;;4994019;28;93591;-70
2023/03/12 07:37:10;;;;;;;12.00;7.25;;;;;;;;;;4992379;28;93868;-69
2023/03/12 07:39:37;;;;;;;15.18;7.53;;;;;;;;;;4990928;28;95353;-69
2023/03/12 07:42:03;;;;;;;10.57;7.07;;;;;;;;;;4992887;28;96122;-69
2023/03/12 07:44:29;;;;;;;15.80;8.88;;;;;;;;;;4993195;28;92536;-69
2023/03/12 07:46:56;;;;;;;14.30;8.43;;;;;;;;;;4995889;28;92955;-69
2023/03/12 07:49:22;;;;;;;11.13;6.63;;;;;;;;;;4989587;28;93398;-69
2023/03/12 07:51:48;;;;;;;14.45;7.28;;;;;;;;;;4994341;28;92444;-69
2023/03/12 07:54:15;;;;;;;20.85;8.02;;;;;;;;;;4993140;28;94464;-69
2023/03/12 07:56:42;;;;;;;17.83;7.78;;;;;;;;;;4979632;28;94165;-69
2023/03/12 07:59:08;;;;;;;13.65;8.02;;;;;;;;;;4992257;28;92485;-69
2023/03/12 08:01:35;;;;;;;13.68;7.70;;;;;;;;;;4987046;28;97481;-71
2023/03/12 08:04:01;;;;;;;15.23;7.65;;;;;;;;;;4985179;28;95742;-69
2023/03/12 08:06:28;;;;;;;15.23;8.25;;;;;;;;;;4994336;28;92616;-69
2023/03/12 08:08:54;;;;;;;15.82;7.50;;;;;;;;;;4995687;28;93910;-68
2023/03/12 08:11:21;;;;;;;14.90;8.57;;;;;;;;;;4980409;28;92642;-68
2023/03/12 08:13:47;;;;;;;15.07;8.85;;;;;;;;;;4980333;28;93237;-69
2023/03/12 08:16:13;;;;;;;14.90;8.88;;;;;;;;;;4986796;28;94547;-69
2023/03/12 08:18:41;;;;;;;20.83;11.48;;;;;;;;;;4991214;28;94181;-69
2023/03/12 08:21:08;;;;;;;20.52;12.35;;;;;;;;;;4993678;28;93536;-69
2023/03/12 08:23:34;;;;;;;18.33;9.75;;;;;;;;;;4987828;28;94007;-69
2023/03/12 08:26:00;;;;;;;16.83;10.23;;;;;;;;;;4986739;28;93366;-68
2023/03/12 08:28:27;;;;;;;15.65;9.68;;;;;;;;;;4984227;28;95204;-69
2023/03/12 08:30:54;;;;;;;22.00;10.50;;;;;;;;;;4975200;28;92621;-68
2023/03/12 08:33:21;;;;;;;19.48;10.40;;;;;;;;;;4981315;28;92379;-69
2023/03/12 08:35:48;;;;;;;12.65;9.05;;;;;;;;;;4992089;28;93371;-69
2023/03/12 08:38:14;;;;;;;20.77;10.52;;;;;;;;;;4982425;28;92516;-70
2023/03/12 08:40:41;;;;;;;20.35;11.27;;;;;;;;;;4992130;28;93662;-69
2023/03/12 08:43:07;;;;;;;22.08;10.75;;;;;;;;;;4983871;28;94511;-68
2023/03/12 08:45:35;;;;;;;18.05;10.88;;;;;;;;;;4981287;28;91809;-68
2023/03/12 08:48:02;;;;;;;22.67;11.32;;;;;;;;;;4977759;28;93692;-69
2023/03/12 08:50:30;;;;;;;17.25;10.85;;;;;;;;;;4980310;28;93230;-69
2023/03/12 08:52:57;;;;;;;16.20;11.00;;;;;;;;;;4990297;28;94966;-68
2023/03/12 08:55:25;;;;;;;19.25;11.10;;;;;;;;;;4985839;28;94447;-69
2023/03/12 08:57:54;;;;;;;19.50;10.68;;;;;;;;;;4982954;28;92528;-69
2023/03/12 09:00:20;;;;;;;19.00;10.75;;;;;;;;;;4984738;28;92913;-71
2023/03/12 09:02:47;;;;;;;18.40;12.05;;;;;;;;;;4990306;28;92446;-69
2023/03/12 09:05:13;;;;;;;21.00;12.43;;;;;;;;;;4993467;28;92458;-69
2023/03/12 09:07:40;;;;;;;19.58;11.75;;;;;;;;;;4993528;28;93590;-70
2023/03/12 09:10:06;;;;;;;22.88;12.50;;;;;;;;;;4993878;28;92888;-70
2023/03/12 09:12:32;;;;;;;21.67;12.00;;;;;;;;;;4996608;28;92454;-69
2023/03/12 09:14:59;;;;;;;25.27;13.88;;;;;;;;;;4993773;28;94131;-69
2023/03/12 09:17:30;;;;;;;23.60;13.63;;;;;;;;;;4991733;28;95002;-70
2023/03/12 09:19:56;;;;;;;20.40;12.77;;;;;;;;;;4992932;28;96781;-69
2023/03/12 09:22:23;;;;;;;21.02;13.70;;;;;;;;;;4993372;28;93475;-69
2023/03/12 09:24:49;;;;;;;26.50;13.88;;;;;;;;;;4993161;28;92478;-69
2023/03/12 09:27:15;;;;;;;29.42;14.82;;;;;;;;;;4992039;28;93227;-69
2023/03/12 09:29:42;;;;;;;26.67;14.45;;;;;;;;;;4992803;28;93585;-69
2023/03/12 09:32:26;;;;;;;27.23;14.95;;;;;;;;;;4992292;28;92773;-69
2023/03/12 09:34:53;;;;;;;30.85;16.90;;;;;;;;;;4996328;28;93648;-69
2023/03/12 09:37:19;;;;;;;34.22;17.92;;;;;;;;;;4993181;28;92705;-69
2023/03/12 09:39:49;;;;;;;31.10;16.27;;;;;;;;;;4993317;28;92373;-69
2023/03/12 09:42:29;;;;;;;31.48;17.10;;;;;;;;;;4991443;28;95972;-68
2023/03/12 09:44:56;;;;;;;32.65;17.50;;;;;;;;;;4992940;28;92499;-68
2023/03/12 09:47:28;;;;;;;31.23;19.13;;;;;;;;;;4993665;28;93773;-69
2023/03/12 09:50:16;;;;;;;31.83;17.15;;;;;;;;;;4992832;28;92416;-71
2023/03/12 09:52:46;;;;;;;35.67;19.13;;;;;;;;;;4992936;28;92549;-70
2023/03/12 09:55:15;;;;;;;35.08;17.23;;;;;;;;;;4992722;28;94412;-70
2023/03/12 09:57:45;;;;;;;36.65;19.98;;;;;;;;;;4995854;28;93683;-70
2023/03/12 10:00:12;;;;;;;47.10;23.17;;;;;;;;;;4993447;28;93076;-70
2023/03/12 10:02:45;;;;;;;36.40;21.27;;;;;;;;;;4992941;28;93599;-70
2023/03/12 10:05:23;;;;;;;39.78;21.98;;;;;;;;;;4993062;28;92833;-70
2023/03/12 10:07:52;;;;;;;43.97;22.23;;;;;;;;;;4991335;28;94779;-70
2023/03/12 10:10:37;;;;;;;40.17;21.05;;;;;;;;;;4992921;28;94419;-70
2023/03/12 10:13:25;;;;;;;35.95;21.10;;;;;;;;;;4992763;28;92827;-70
2023/03/12 10:16:04;;;;;;;37.30;21.25;;;;;;;;;;4992084;28;93293;-69
2023/03/12 10:18:33;;;;;;;44.90;22.45;;;;;;;;;;4973119;28;94454;-70
2023/03/12 10:21:03;;;;;;;42.92;23.95;;;;;;;;;;4975835;28;92419;-69
2023/03/12 10:23:35;;;;;;;45.08;24.55;;;;;;;;;;4973035;28;93461;-69
2023/03/12 10:26:20;;;;;;;46.53;23.67;;;;;;;;;;4973477;28;91689;-69
2023/03/12 10:28:55;;;;;;;44.00;23.75;;;;;;;;;;4972962;28;92341;-69
2023/03/12 10:31:25;;;;;;;37.60;23.23;;;;;;;;;;4972850;28;93453;-69
2023/03/12 10:33:54;;;;;;;39.25;22.48;;;;;;;;;;4974475;28;94818;-69
2023/03/12 10:36:24;;;;;;;55.03;25.83;;;;;;;;;;4974215;28;95406;-69
2023/03/12 10:38:50;;;;;;;38.88;21.55;;;;;;;;;;4975882;28;94591;-69
2023/03/12 10:41:24;;;;;;;39.83;22.98;;;;;;;;;;4979195;28;92404;-70
2023/03/12 10:43:51;;;;;;;37.72;21.60;;;;;;;;;;4975618;28;94279;-71
2023/03/12 10:46:32;;;;;;;33.15;21.00;;;;;;;;;;4984496;28;93276;-69
2023/03/12 10:49:18;;;;;;;37.13;21.00;;;;;;;;;;4986556;28;94126;-69
2023/03/12 10:52:04;;;;;;;34.17;19.90;;;;;;;;;;4982861;28;92705;-70
2023/03/12 10:54:35;;;;;;;33.80;19.60;;;;;;;;;;4994810;28;92492;-70
2023/03/12 10:57:01;;;;;;;35.42;20.70;;;;;;;;;;4995252;28;93076;-69
2023/03/12 10:59:29;;;;;;;33.30;20.48;;;;;;;;;;4984185;28;96345;-70
2023/03/12 11:01:56;;;;;;;44.97;21.65;;;;;;;;;;4989252;28;92885;-70
2023/03/12 11:04:29;;;;;;;43.67;22.00;;;;;;;;;;4998214;28;94575;-70
2023/03/12 11:07:02;;;;;;;41.03;19.60;;;;;;;;;;4982454;28;93596;-70
2023/03/12 11:09:28;;;;;;;37.35;20.23;;;;;;;;;;4988040;28;93663;-69
2023/03/12 11:11:55;;;;;;;39.67;20.65;;;;;;;;;;4995137;28;96611;-69
2023/03/12 11:14:23;;;;;;;49.03;19.10;;;;;;;;;;4992885;28;92542;-69
2023/03/12 11:16:50;;;;;;;45.42;20.05;;;;;;;;;;4996148;28;94372;-69
2023/03/12 11:19:32;;;;;;;37.58;18.08;;;;;;;;;;4987203;28;94206;-69
2023/03/12 11:22:00;;;;;;;48.78;16.88;;;;;;;;;;4995096;28;92770;-70
2023/03/12 11:24:26;;;;;;;44.60;15.23;;;;;;;;;;4992283;28;94810;-70
2023/03/12 11:27:00;;;;;;;47.08;15.30;;;;;;;;;;4998013;28;95927;-70
2023/03/12 11:29:30;;;;;;;47.58;16.00;;;;;;;;;;4994190;28;93262;-69
2023/03/12 11:31:58;;;;;;;55.90;14.65;;;;;;;;;;4981818;28;93258;-70
2023/03/12 11:34:27;;;;;;;52.45;14.65;;;;;;;;;;4988840;28;93392;-69
2023/03/12 11:37:00;;;;;;;46.65;14.98;;;;;;;;;;4995039;28;96921;-70
2023/03/12 11:39:38;;;;;;;56.30;12.95;;;;;;;;;;4994122;28;93753;-70
2023/03/12 11:42:06;;;;;;;43.88;12.15;;;;;;;;;;4994889;28;91645;-69
2023/03/12 11:44:41;;;;;;;48.67;12.63;;;;;;;;;;4993788;28;93474;-70
2023/03/12 11:47:22;;;;;;;47.22;12.13;;;;;;;;;;4990676;28;93640;-70
2023/03/12 11:50:07;;;;;;;48.47;11.38;;;;;;;;;;4996237;28;94832;-70
2023/03/12 11:52:45;;;;;;;38.00;10.25;;;;;;;;;;4994440;28;93412;-70
2023/03/12 11:55:18;;;;;;;47.63;10.43;;;;;;;;;;4994134;28;92472;-70
2023/03/12 11:58:00;;;;;;;43.42;10.20;;;;;;;;;;4994851;28;93386;-70
2023/03/12 12:00:31;;;;;;;51.65;11.77;;;;;;;;;;4993035;28;93402;-70
2023/03/12 12:02:57;;;;;;;;;;;;;;;;;;4992298;28;92975;-68
2023/03/12 12:05:36;;;;;;;35.08;10.43;;;;;;;;;;4996050;28;124054;-70
2023/03/12 12:08:11;;;;;;;40.85;10.30;;;;;;;;;;4993773;28;93018;-70
2023/03/12 12:11:03;;;;;;;42.72;10.18;;;;;;;;;;4993521;28;92426;-70
2023/03/12 12:13:30;;;;;;;44.47;10.52;;;;;;;;;;4974317;28;93229;-70
2023/03/12 12:15:59;;;;;;;33.65;9.85;;;;;;;;;;4967081;28;94999;-70
2023/03/12 12:18:31;;;;;;;37.47;8.93;;;;;;;;;;4969192;28;96721;-70
2023/03/12 12:21:15;;;;;;;36.53;9.88;;;;;;;;;;4965824;28;93710;-70
2023/03/12 12:23:58;;;;;;;50.25;10.18;;;;;;;;;;4964635;28;92534;-70
2023/03/12 12:26:43;;;;;;;46.65;9.55;;;;;;;;;;4968373;28;93119;-70
2023/03/12 12:29:27;;;;;;;43.05;9.00;;;;;;;;;;4968445;28;93412;-70
2023/03/12 12:31:58;;;;;;;56.83;9.85;;;;;;;;;;4962840;28;92809;-70
2023/03/12 12:34:27;;;;;;;46.28;9.45;;;;;;;;;;4975429;28;93426;-69
2023/03/12 12:37:17;;;;;;;48.40;9.25;;;;;;;;;;4972418;28;92502;-70
2023/03/12 12:39:49;;;;;;;56.88;10.40;;;;;;;;;;4963521;28;94551;-71
2023/03/12 12:42:19;;;;;;;45.50;9.50;;;;;;;;;;4963513;28;95764;-69
2023/03/12 12:44:45;;;;;;;;;;;;;;;;;;4964200;28;93049;-68
2023/03/12 12:47:17;;;;;;;44.33;8.23;;;;;;;;;;4969480;28;122955;-70
2023/03/12 12:50:02;;;;;;;61.85;9.05;;;;;;;;;;4976769;28;93305;-69
2023/03/12 12:52:28;;;;;;;51.92;9.18;;;;;;;;;;4994451;28;92509;-69
2023/03/12 12:55:13;;;;;;;52.65;8.90;;;;;;;;;;4992667;28;93161;-70
2023/03/12 12:57:59;;;;;;;61.63;9.00;;;;;;;;;;4982132;28;94358;-70
2023/03/12 13:00:37;;;;;;;58.65;9.82;;;;;;;;;;4981640;28;93327;-70
2023/03/12 13:03:03;;;;;;;58.65;9.77;;;;;;;;;;4975159;28;93363;-70
2023/03/12 13:05:36;;;;;;;41.30;8.32;;;;;;;;;;4975638;28;92715;-70
2023/03/12 13:08:03;;;;;;;54.08;8.82;;;;;;;;;;4992247;28;94904;-70
2023/03/12 13:10:37;;;;;;;51.42;9.43;;;;;;;;;;4991204;28;93399;-70
2023/03/12 13:13:18;;;;;;;50.50;8.98;;;;;;;;;;4987849;28;92529;-70
2023/03/12 13:15:44;;;;;;;;;;;;;;;;;;4978032;28;93130;-68
2023/03/12 13:18:21;;;;;;;61.95;8.23;;;;;;;;;;4997649;28;124443;-69
2023/03/12 13:20:50;;;;;;;62.00;10.07;;;;;;;;;;5001284;28;92904;-70
2023/03/12 13:23:20;;;;;;;53.22;9.27;;;;;;;;;;4985295;28;93650;-71
2023/03/12 13:25:52;;;;;;;45.15;9.13;;;;;;;;;;4987179;28;92191;-71
2023/03/12 13:28:24;;;;;;;65.88;11.80;;;;;;;;;;5007458;28;94091;-70
2023/03/12 13:30:51;;;;;;;51.17;9.02;;;;;;;;;;5016532;28;92552;-71
2023/03/12 13:33:20;;;;;;;55.55;9.30;;;;;;;;;;5014551;28;93945;-71
2023/03/12 13:36:00;;;;;;;46.15;9.40;;;;;;;;;;5018789;28;94392;-71
2023/03/12 13:38:34;;;;;;;51.97;10.18;;;;;;;;;;5019033;28;92805;-70
2023/03/12 13:41:01;;;;;;;52.03;9.50;;;;;;;;;;5004435;28;92035;-70
2023/03/12 13:43:30;;;;;;;48.72;8.75;;;;;;;;;;5015363;28;93228;-70
2023/03/12 13:46:03;;;;;;;48.95;7.75;;;;;;;;;;5018298;28;91632;-70
2023/03/12 13:48:33;;;;;;;69.32;11.05;;;;;;;;;;5009503;28;93255;-70
2023/03/12 13:51:10;;;;;;;47.10;7.82;;;;;;;;;;5018868;28;91570;-68
2023/03/12 13:53:37;;;;;;;52.25;8.90;;;;;;;;;;5014362;28;91747;-70
2023/03/12 13:56:09;;;;;;;50.75;8.48;;;;;;;;;;5018846;28;93200;-70
2023/03/12 13:59:01;;;;;;;45.42;7.85;;;;;;;;;;4980277;28;94885;-70
2023/03/12 14:01:29;;;;;;;49.25;8.10;;;;;;;;;;4974688;28;92551;-69
2023/03/12 14:04:00;;;;;;;35.58;7.13;;;;;;;;;;4990577;28;92475;-69
2023/03/12 14:06:29;;;;;;;44.35;7.60;;;;;;;;;;4999281;28;96012;-69
2023/03/12 14:09:17;;;;;;;48.33;7.95;;;;;;;;;;4998686;28;93291;-70
2023/03/12 14:12:02;;;;;;;45.08;8.13;;;;;;;;;;4978391;28;94460;-69
2023/03/12 14:14:40;;;;;;;46.80;7.13;;;;;;;;;;4976852;28;92636;-70
2023/03/12 14:17:18;;;;;;;41.47;6.80;;;;;;;;;;4988963;28;93483;-69
2023/03/12 14:19:46;;;;;;;45.17;6.63;;;;;;;;;;4990002;28;94361;-70
2023/03/12 14:22:13;;;;;;;36.15;7.35;;;;;;;;;;4994931;28;92662;-70
2023/03/12 14:24:40;;;;;;;41.70;6.55;;;;;;;;;;4993164;28;95005;-70
2023/03/12 14:27:12;;;;;;;40.08;7.72;;;;;;;;;;4995493;28;93030;-70
2023/03/12 14:29:51;;;;;;;38.20;7.40;;;;;;;;;;5000101;28;92377;-70
2023/03/12 14:32:22;;;;;;;41.88;7.18;;;;;;;;;;4984495;28;94980;-70
2023/03/12 14:34:52;;;;;;;40.22;6.97;;;;;;;;;;4995370;28;93125;-70
2023/03/12 14:37:21;;;;;;;35.15;5.93;;;;;;;;;;4981477;28;93312;-71
2023/03/12 14:39:56;;;;;;;45.53;7.22;;;;;;;;;;4978210;28;93427;-70
2023/03/12 14:42:32;;;;;;;33.05;6.05;;;;;;;;;;4987390;28;92021;-70